sensor_id;sensor_type;location;lat;lon;timestamp;temperature;humidity
19880;DHT22;10102;50.828;4.416;2023-04-24T00:00:06;10.60;99.90
19880;DHT22;10102;50.828;4.416;2023-04-24T00:02:35;10.80;99.90
19880;DHT22;10102;50.828;4.416;2023-04-24T00:05:07;10.80;99.90
19880;DHT22;10102;50.828;4.416;2023-04-24T00:07:33;10.80;99.90
19880;DHT22;10102;50.828;4.416;2023-04-24T00:09:59;10.60;99.90
19880;DHT22;10102;50.828;4.416;2023-04-24T00:12:26;10.20;99.90
19880;DHT22;10102;50.828;4.416;2023-04-24T00:14:52;10.50;99.90
19880;DHT22;10102;50.828;4.416;2023-04-24T00:17:19;10.40;99.90
19880;DHT22;10102;50.828;4.416;2023-04-24T00:19:48;10.30;99.90
19880;DHT22;10102;50.828;4.416;2023-04-24T00:24:43;10.30;99.90
19880;DHT22;10102;50.828;4.416;2023-04-24T00:27:09;10.00;99.90
19880;DHT22;10102;50.828;4.416;2023-04-24T00:29:34;10.50;99.90
19880;DHT22;10102;50.828;4.416;2023-04-24T00:34:26;10.20;99.90
19880;DHT22;10102;50.828;4.416;2023-04-24T00:39:19;10.20;99.90
19880;DHT22;10102;50.828;4.416;2023-04-24T00:41:45;10.30;99.90
19880;DHT22;10102;50.828;4.416;2023-04-24T00:44:11;10.50;99.90
19880;DHT22;10102;50.828;4.416;2023-04-24T00:46:37;10.20;99.90
19880;DHT22;10102;50.828;4.416;2023-04-24T00:49:05;10.20;99.90
19880;DHT22;10102;50.828;4.416;2023-04-24T00:53:58;10.00;99.90
19880;DHT22;10102;50.828;4.416;2023-04-24T00:58:51;10.10;99.90
19880;DHT22;10102;50.828;4.416;2023-04-24T01:01:21;10.00;99.90
19880;DHT22;10102;50.828;4.416;2023-04-24T01:03:49;10.10;99.90
19880;DHT22;10102;50.828;4.416;2023-04-24T01:06:16;10.10;99.90
19880;DHT22;10102;50.828;4.416;2023-04-24T01:08:43;10.10;99.90
19880;DHT22;10102;50.828;4.416;2023-04-24T01:11:11;10.20;99.90
19880;DHT22;10102;50.828;4.416;2023-04-24T01:20:59;10.20;99.90
19880;DHT22;10102;50.828;4.416;2023-04-24T01:23:29;10.30;99.90
19880;DHT22;10102;50.828;4.416;2023-04-24T01:25:55;10.20;99.90
19880;DHT22;10102;50.828;4.416;2023-04-24T01:28:21;10.20;99.90
19880;DHT22;10102;50.828;4.416;2023-04-24T01:33:13;10.00;99.90
19880;DHT22;10102;50.828;4.416;2023-04-24T01:35:39;10.00;99.90
19880;DHT22;10102;50.828;4.416;2023-04-24T01:38:05;9.90;99.90
19880;DHT22;10102;50.828;4.416;2023-04-24T01:42:58;9.50;99.90
19880;DHT22;10102;50.828;4.416;2023-04-24T01:47:50;9.70;99.90
19880;DHT22;10102;50.828;4.416;2023-04-24T01:50:16;9.70;99.90
19880;DHT22;10102;50.828;4.416;2023-04-24T01:55:09;9.80;99.90
19880;DHT22;10102;50.828;4.416;2023-04-24T01:57:35;9.70;99.90
19880;DHT22;10102;50.828;4.416;2023-04-24T02:00:02;9.70;99.90
19880;DHT22;10102;50.828;4.416;2023-04-24T02:02:29;9.80;99.90
19880;DHT22;10102;50.828;4.416;2023-04-24T02:04:56;9.70;99.90
19880;DHT22;10102;50.828;4.416;2023-04-24T02:07:22;9.70;99.90
19880;DHT22;10102;50.828;4.416;2023-04-24T02:12:15;9.50;99.90
19880;DHT22;10102;50.828;4.416;2023-04-24T02:14:41;9.20;99.90
19880;DHT22;10102;50.828;4.416;2023-04-24T02:17:07;9.60;99.90
19880;DHT22;10102;50.828;4.416;2023-04-24T02:19:33;9.50;99.90
19880;DHT22;10102;50.828;4.416;2023-04-24T02:24:25;9.50;99.90
19880;DHT22;10102;50.828;4.416;2023-04-24T02:26:51;9.50;99.90
19880;DHT22;10102;50.828;4.416;2023-04-24T02:31:43;9.60;99.90
19880;DHT22;10102;50.828;4.416;2023-04-24T02:34:09;9.50;99.90
19880;DHT22;10102;50.828;4.416;2023-04-24T02:39:01;9.50;99.90
19880;DHT22;10102;50.828;4.416;2023-04-24T02:41:27;9.50;99.90
19880;DHT22;10102;50.828;4.416;2023-04-24T02:43:58;9.60;99.90
19880;DHT22;10102;50.828;4.416;2023-04-24T02:46:24;9.60;99.90
19880;DHT22;10102;50.828;4.416;2023-04-24T02:48:50;9.60;99.90
19880;DHT22;10102;50.828;4.416;2023-04-24T02:51:16;9.50;99.90
19880;DHT22;10102;50.828;4.416;2023-04-24T02:53:41;9.40;99.90
19880;DHT22;10102;50.828;4.416;2023-04-24T02:56:07;9.70;99.90
19880;DHT22;10102;50.828;4.416;2023-04-24T02:58:33;9.60;99.90
19880;DHT22;10102;50.828;4.416;2023-04-24T03:00:58;9.60;99.90
19880;DHT22;10102;50.828;4.416;2023-04-24T03:13:09;9.60;99.90
19880;DHT22;10102;50.828;4.416;2023-04-24T03:15:35;9.60;99.90
19880;DHT22;10102;50.828;4.416;2023-04-24T03:18:00;9.60;99.90
19880;DHT22;10102;50.828;4.416;2023-04-24T03:20:26;9.50;99.90
19880;DHT22;10102;50.828;4.416;2023-04-24T03:25:18;9.50;99.90
19880;DHT22;10102;50.828;4.416;2023-04-24T03:27:44;9.50;99.90
19880;DHT22;10102;50.828;4.416;2023-04-24T03:30:10;9.50;99.90
19880;DHT22;10102;50.828;4.416;2023-04-24T03:32:36;9.60;99.90
19880;DHT22;10102;50.828;4.416;2023-04-24T03:35:02;9.50;99.90
19880;DHT22;10102;50.828;4.416;2023-04-24T03:37:28;9.50;99.90
19880;DHT22;10102;50.828;4.416;2023-04-24T03:39:54;9.40;99.90
19880;DHT22;10102;50.828;4.416;2023-04-24T03:44:46;9.40;99.90
19880;DHT22;10102;50.828;4.416;2023-04-24T03:47:11;9.30;99.90
19880;DHT22;10102;50.828;4.416;2023-04-24T03:49:37;9.60;99.90
19880;DHT22;10102;50.828;4.416;2023-04-24T03:52:03;9.30;99.90
19880;DHT22;10102;50.828;4.416;2023-04-24T03:54:28;9.30;99.90
19880;DHT22;10102;50.828;4.416;2023-04-24T03:56:54;9.30;99.90
19880;DHT22;10102;50.828;4.416;2023-04-24T03:59:20;9.40;99.90
19880;DHT22;10102;50.828;4.416;2023-04-24T04:06:38;9.50;99.90
19880;DHT22;10102;50.828;4.416;2023-04-24T04:09:04;9.50;99.90
19880;DHT22;10102;50.828;4.416;2023-04-24T04:16:22;9.50;99.90
19880;DHT22;10102;50.828;4.416;2023-04-24T04:21:14;9.60;99.90
19880;DHT22;10102;50.828;4.416;2023-04-24T04:26:07;9.60;99.90
19880;DHT22;10102;50.828;4.416;2023-04-24T04:28:33;9.60;99.90
19880;DHT22;10102;50.828;4.416;2023-04-24T04:31:00;9.60;99.90
19880;DHT22;10102;50.828;4.416;2023-04-24T04:33:26;9.60;99.90
19880;DHT22;10102;50.828;4.416;2023-04-24T04:35:52;9.30;99.90
19880;DHT22;10102;50.828;4.416;2023-04-24T04:38:18;9.50;99.90
19880;DHT22;10102;50.828;4.416;2023-04-24T04:40:45;9.60;99.90
19880;DHT22;10102;50.828;4.416;2023-04-24T04:43:11;9.40;99.90
19880;DHT22;10102;50.828;4.416;2023-04-24T04:45:39;9.40;99.90
19880;DHT22;10102;50.828;4.416;2023-04-24T04:48:07;9.40;99.90
19880;DHT22;10102;50.828;4.416;2023-04-24T04:50:38;9.60;99.90
19880;DHT22;10102;50.828;4.416;2023-04-24T04:55:31;9.40;99.90
19880;DHT22;10102;50.828;4.416;2023-04-24T05:00:23;9.40;99.90
19880;DHT22;10102;50.828;4.416;2023-04-24T05:05:17;9.40;99.90
19880;DHT22;10102;50.828;4.416;2023-04-24T05:07:44;9.40;99.90
19880;DHT22;10102;50.828;4.416;2023-04-24T05:10:10;9.50;99.90
19880;DHT22;10102;50.828;4.416;2023-04-24T05:12:36;9.50;99.90
19880;DHT22;10102;50.828;4.416;2023-04-24T05:15:02;9.40;99.90
19880;DHT22;10102;50.828;4.416;2023-04-24T05:17:28;9.40;99.90
19880;DHT22;10102;50.828;4.416;2023-04-24T05:19:54;9.40;99.90
19880;DHT22;10102;50.828;4.416;2023-04-24T05:22:20;9.20;99.90
19880;DHT22;10102;50.828;4.416;2023-04-24T05:24:47;9.20;99.90
19880;DHT22;10102;50.828;4.416;2023-04-24T05:27:13;9.10;99.90
19880;DHT22;10102;50.828;4.416;2023-04-24T05:29:39;9.00;99.90
19880;DHT22;10102;50.828;4.416;2023-04-24T05:32:05;9.10;99.90
19880;DHT22;10102;50.828;4.416;2023-04-24T05:34:32;9.10;99.90
19880;DHT22;10102;50.828;4.416;2023-04-24T05:36:58;9.40;99.90
19880;DHT22;10102;50.828;4.416;2023-04-24T05:39:24;8.80;99.90
19880;DHT22;10102;50.828;4.416;2023-04-24T05:41:50;9.10;99.90
19880;DHT22;10102;50.828;4.416;2023-04-24T05:49:08;9.30;99.90
19880;DHT22;10102;50.828;4.416;2023-04-24T05:54:00;9.30;99.90
19880;DHT22;10102;50.828;4.416;2023-04-24T05:58:53;9.10;99.90
19880;DHT22;10102;50.828;4.416;2023-04-24T06:01:19;9.30;99.90
19880;DHT22;10102;50.828;4.416;2023-04-24T06:06:11;9.10;99.90
19880;DHT22;10102;50.828;4.416;2023-04-24T06:08:36;9.20;99.90
19880;DHT22;10102;50.828;4.416;2023-04-24T06:15:55;9.10;99.90
19880;DHT22;10102;50.828;4.416;2023-04-24T06:18:20;9.10;99.90
19880;DHT22;10102;50.828;4.416;2023-04-24T06:20:46;9.00;99.90
19880;DHT22;10102;50.828;4.416;2023-04-24T06:23:12;8.90;99.90
19880;DHT22;10102;50.828;4.416;2023-04-24T06:25:38;9.00;99.90
19880;DHT22;10102;50.828;4.416;2023-04-24T06:30:30;8.90;99.90
19880;DHT22;10102;50.828;4.416;2023-04-24T06:32:56;8.70;99.90
19880;DHT22;10102;50.828;4.416;2023-04-24T06:35:22;8.90;99.90
19880;DHT22;10102;50.828;4.416;2023-04-24T06:37:48;8.90;99.90
19880;DHT22;10102;50.828;4.416;2023-04-24T06:40:14;9.10;99.90
19880;DHT22;10102;50.828;4.416;2023-04-24T06:42:40;9.00;99.90
19880;DHT22;10102;50.828;4.416;2023-04-24T06:45:06;9.10;99.90
19880;DHT22;10102;50.828;4.416;2023-04-24T06:49:58;9.50;99.90
19880;DHT22;10102;50.828;4.416;2023-04-24T06:57:17;9.10;99.90
19880;DHT22;10102;50.828;4.416;2023-04-24T06:59:43;9.20;99.90
19880;DHT22;10102;50.828;4.416;2023-04-24T07:02:08;9.10;99.90
19880;DHT22;10102;50.828;4.416;2023-04-24T07:04:34;9.20;99.90
19880;DHT22;10102;50.828;4.416;2023-04-24T07:07:00;9.30;99.90
19880;DHT22;10102;50.828;4.416;2023-04-24T07:09:26;9.40;99.90
19880;DHT22;10102;50.828;4.416;2023-04-24T07:11:52;9.60;99.90
19880;DHT22;10102;50.828;4.416;2023-04-24T07:16:45;9.40;99.90
19880;DHT22;10102;50.828;4.416;2023-04-24T07:19:12;9.60;99.90
19880;DHT22;10102;50.828;4.416;2023-04-24T07:21:38;9.50;99.90
19880;DHT22;10102;50.828;4.416;2023-04-24T07:24:04;9.50;99.90
19880;DHT22;10102;50.828;4.416;2023-04-24T07:26:30;9.80;99.90
19880;DHT22;10102;50.828;4.416;2023-04-24T07:31:23;10.00;99.90
19880;DHT22;10102;50.828;4.416;2023-04-24T07:33:48;10.00;99.90
19880;DHT22;10102;50.828;4.416;2023-04-24T07:36:15;9.70;99.90
19880;DHT22;10102;50.828;4.416;2023-04-24T07:38:47;10.00;99.90
19880;DHT22;10102;50.828;4.416;2023-04-24T07:41:13;10.10;99.90
19880;DHT22;10102;50.828;4.416;2023-04-24T07:43:40;10.20;99.90
19880;DHT22;10102;50.828;4.416;2023-04-24T07:46:06;10.10;99.90
19880;DHT22;10102;50.828;4.416;2023-04-24T07:48:32;10.20;99.90
19880;DHT22;10102;50.828;4.416;2023-04-24T07:50:58;10.20;99.90
19880;DHT22;10102;50.828;4.416;2023-04-24T07:53:24;10.10;99.90
19880;DHT22;10102;50.828;4.416;2023-04-24T07:55:50;10.20;99.90
19880;DHT22;10102;50.828;4.416;2023-04-24T07:58:16;10.30;99.90
19880;DHT22;10102;50.828;4.416;2023-04-24T08:05:33;10.50;99.90
19880;DHT22;10102;50.828;4.416;2023-04-24T08:07:59;10.40;99.90
19880;DHT22;10102;50.828;4.416;2023-04-24T08:10:25;10.20;99.90
19880;DHT22;10102;50.828;4.416;2023-04-24T08:12:51;10.20;99.90
19880;DHT22;10102;50.828;4.416;2023-04-24T08:15:17;10.10;99.90
19880;DHT22;10102;50.828;4.416;2023-04-24T08:17:43;10.50;99.90
19880;DHT22;10102;50.828;4.416;2023-04-24T08:20:10;10.50;99.90
19880;DHT22;10102;50.828;4.416;2023-04-24T08:22:43;10.70;99.90
19880;DHT22;10102;50.828;4.416;2023-04-24T08:25:10;11.00;99.90
19880;DHT22;10102;50.828;4.416;2023-04-24T08:27:36;11.00;99.90
19880;DHT22;10102;50.828;4.416;2023-04-24T08:30:03;11.30;99.90
19880;DHT22;10102;50.828;4.416;2023-04-24T08:34:57;11.40;99.90
19880;DHT22;10102;50.828;4.416;2023-04-24T08:37:23;11.50;99.90
19880;DHT22;10102;50.828;4.416;2023-04-24T08:39:50;11.60;99.90
19880;DHT22;10102;50.828;4.416;2023-04-24T08:42:17;11.70;99.90
19880;DHT22;10102;50.828;4.416;2023-04-24T08:47:11;11.80;99.90
19880;DHT22;10102;50.828;4.416;2023-04-24T08:49:37;11.60;99.90
19880;DHT22;10102;50.828;4.416;2023-04-24T08:52:05;12.00;99.90
19880;DHT22;10102;50.828;4.416;2023-04-24T08:54:32;11.90;99.90
19880;DHT22;10102;50.828;4.416;2023-04-24T08:57:00;12.20;99.90
19880;DHT22;10102;50.828;4.416;2023-04-24T08:59:27;12.40;99.90
19880;DHT22;10102;50.828;4.416;2023-04-24T09:01:55;12.50;99.90
19880;DHT22;10102;50.828;4.416;2023-04-24T09:04:22;12.40;99.90
19880;DHT22;10102;50.828;4.416;2023-04-24T09:06:50;12.70;99.90
19880;DHT22;10102;50.828;4.416;2023-04-24T09:09:17;12.40;99.90
19880;DHT22;10102;50.828;4.416;2023-04-24T09:11:44;12.70;99.90
19880;DHT22;10102;50.828;4.416;2023-04-24T09:14:10;12.90;99.90
19880;DHT22;10102;50.828;4.416;2023-04-24T09:16:36;13.00;99.90
19880;DHT22;10102;50.828;4.416;2023-04-24T09:19:02;12.90;99.90
19880;DHT22;10102;50.828;4.416;2023-04-24T09:21:35;13.00;99.90
19880;DHT22;10102;50.828;4.416;2023-04-24T09:24:06;13.10;99.90
19880;DHT22;10102;50.828;4.416;2023-04-24T09:26:35;13.10;99.90
19880;DHT22;10102;50.828;4.416;2023-04-24T09:29:02;12.70;99.90
19880;DHT22;10102;50.828;4.416;2023-04-24T09:31:29;12.70;99.90
19880;DHT22;10102;50.828;4.416;2023-04-24T09:37:29;12.60;99.90
19880;DHT22;10102;50.828;4.416;2023-04-24T09:40:31;12.00;99.90
19880;DHT22;10102;50.828;4.416;2023-04-24T09:42:59;12.30;99.90
19880;DHT22;10102;50.828;4.416;2023-04-24T09:45:35;12.00;99.90
19880;DHT22;10102;50.828;4.416;2023-04-24T09:50:30;12.60;99.90
19880;DHT22;10102;50.828;4.416;2023-04-24T09:52:59;13.00;99.90
19880;DHT22;10102;50.828;4.416;2023-04-24T09:55:26;12.80;99.90
19880;DHT22;10102;50.828;4.416;2023-04-24T09:57:58;13.00;99.90
19880;DHT22;10102;50.828;4.416;2023-04-24T10:00:30;12.80;99.90
19880;DHT22;10102;50.828;4.416;2023-04-24T10:03:03;12.40;99.90
19880;DHT22;10102;50.828;4.416;2023-04-24T10:05:34;12.30;99.90
19880;DHT22;10102;50.828;4.416;2023-04-24T10:10:29;12.60;99.90
19880;DHT22;10102;50.828;4.416;2023-04-24T10:15:21;12.50;99.90
19880;DHT22;10102;50.828;4.416;2023-04-24T10:17:49;13.00;99.90
19880;DHT22;10102;50.828;4.416;2023-04-24T10:20:20;13.10;99.90
19880;DHT22;10102;50.828;4.416;2023-04-24T10:22:51;13.20;99.90
19880;DHT22;10102;50.828;4.416;2023-04-24T10:25:24;13.10;99.90
19880;DHT22;10102;50.828;4.416;2023-04-24T10:27:51;13.30;99.90
19880;DHT22;10102;50.828;4.416;2023-04-24T10:30:19;13.20;99.90
19880;DHT22;10102;50.828;4.416;2023-04-24T10:35:15;12.80;99.90
19880;DHT22;10102;50.828;4.416;2023-04-24T10:37:48;12.60;99.90
19880;DHT22;10102;50.828;4.416;2023-04-24T10:40:19;12.70;99.90
19880;DHT22;10102;50.828;4.416;2023-04-24T10:42:51;12.90;99.90
19880;DHT22;10102;50.828;4.416;2023-04-24T10:45:20;12.80;99.90
19880;DHT22;10102;50.828;4.416;2023-04-24T10:52:49;14.10;99.90
19880;DHT22;10102;50.828;4.416;2023-04-24T10:55:46;14.60;99.90
19880;DHT22;10102;50.828;4.416;2023-04-24T10:58:12;14.90;99.90
19880;DHT22;10102;50.828;4.416;2023-04-24T11:00:40;14.70;99.90
19880;DHT22;10102;50.828;4.416;2023-04-24T11:08:27;14.10;99.90
19880;DHT22;10102;50.828;4.416;2023-04-24T11:11:01;14.20;99.90
19880;DHT22;10102;50.828;4.416;2023-04-24T11:19:06;14.80;99.90
19880;DHT22;10102;50.828;4.416;2023-04-24T11:21:44;14.70;99.90
19880;DHT22;10102;50.828;4.416;2023-04-24T11:24:38;14.60;99.90
19880;DHT22;10102;50.828;4.416;2023-04-24T11:35:01;15.00;99.90
19880;DHT22;10102;50.828;4.416;2023-04-24T11:37:38;15.00;99.90
19880;DHT22;10102;50.828;4.416;2023-04-24T11:40:05;14.90;99.90
19880;DHT22;10102;50.828;4.416;2023-04-24T11:42:44;14.60;99.90
19880;DHT22;10102;50.828;4.416;2023-04-24T11:45:21;14.50;99.90
19880;DHT22;10102;50.828;4.416;2023-04-24T11:47:47;14.10;99.90
19880;DHT22;10102;50.828;4.416;2023-04-24T11:50:17;14.00;99.90
19880;DHT22;10102;50.828;4.416;2023-04-24T11:52:44;14.00;99.90
19880;DHT22;10102;50.828;4.416;2023-04-24T11:57:51;15.00;99.90
19880;DHT22;10102;50.828;4.416;2023-04-24T12:00:26;16.70;99.90
19880;DHT22;10102;50.828;4.416;2023-04-24T12:05:30;17.50;99.90
19880;DHT22;10102;50.828;4.416;2023-04-24T12:07:58;17.90;99.90
19880;DHT22;10102;50.828;4.416;2023-04-24T12:10:25;18.00;99.90
19880;DHT22;10102;50.828;4.416;2023-04-24T12:12:52;20.30;99.90
19880;DHT22;10102;50.828;4.416;2023-04-24T12:15:21;20.20;99.90
19880;DHT22;10102;50.828;4.416;2023-04-24T12:17:49;21.80;99.90
19880;DHT22;10102;50.828;4.416;2023-04-24T12:20:16;21.90;99.90
19880;DHT22;10102;50.828;4.416;2023-04-24T12:22:46;21.50;99.90
19880;DHT22;10102;50.828;4.416;2023-04-24T12:25:17;19.20;99.90
19880;DHT22;10102;50.828;4.416;2023-04-24T12:27:44;20.90;99.90
19880;DHT22;10102;50.828;4.416;2023-04-24T12:30:13;21.40;99.90
19880;DHT22;10102;50.828;4.416;2023-04-24T12:32:44;22.20;99.90
19880;DHT22;10102;50.828;4.416;2023-04-24T12:35:10;23.20;99.90
19880;DHT22;10102;50.828;4.416;2023-04-24T12:37:36;23.30;99.90
19880;DHT22;10102;50.828;4.416;2023-04-24T12:40:10;26.30;99.90
19880;DHT22;10102;50.828;4.416;2023-04-24T12:42:45;25.00;99.90
19880;DHT22;10102;50.828;4.416;2023-04-24T12:45:12;24.10;99.90
19880;DHT22;10102;50.828;4.416;2023-04-24T12:47:38;24.70;99.90
19880;DHT22;10102;50.828;4.416;2023-04-24T12:50:05;26.00;99.00
19880;DHT22;10102;50.828;4.416;2023-04-24T12:52:31;27.20;96.20
19880;DHT22;10102;50.828;4.416;2023-04-24T12:54:58;26.10;99.90
19880;DHT22;10102;50.828;4.416;2023-04-24T12:57:29;25.70;94.80
19880;DHT22;10102;50.828;4.416;2023-04-24T12:59:56;24.80;96.20
19880;DHT22;10102;50.828;4.416;2023-04-24T13:02:23;25.10;95.50
19880;DHT22;10102;50.828;4.416;2023-04-24T13:04:50;24.40;95.90
19880;DHT22;10102;50.828;4.416;2023-04-24T13:07:16;23.00;97.60
19880;DHT22;10102;50.828;4.416;2023-04-24T13:09:43;23.10;99.90
19880;DHT22;10102;50.828;4.416;2023-04-24T13:12:10;23.50;97.40
19880;DHT22;10102;50.828;4.416;2023-04-24T13:14:37;23.40;99.90
19880;DHT22;10102;50.828;4.416;2023-04-24T13:17:04;23.20;97.20
19880;DHT22;10102;50.828;4.416;2023-04-24T13:19:36;22.90;99.10
19880;DHT22;10102;50.828;4.416;2023-04-24T13:22:03;25.90;95.70
19880;DHT22;10102;50.828;4.416;2023-04-24T13:24:28;27.20;92.70
19880;DHT22;10102;50.828;4.416;2023-04-24T13:26:55;26.00;91.60
19880;DHT22;10102;50.828;4.416;2023-04-24T13:29:22;26.60;92.40
19880;DHT22;10102;50.828;4.416;2023-04-24T13:31:52;28.50;90.70
19880;DHT22;10102;50.828;4.416;2023-04-24T13:34:20;31.60;84.00
19880;DHT22;10102;50.828;4.416;2023-04-24T13:36:46;31.50;80.10
19880;DHT22;10102;50.828;4.416;2023-04-24T13:39:12;29.40;81.60
19880;DHT22;10102;50.828;4.416;2023-04-24T13:41:38;27.20;85.80
19880;DHT22;10102;50.828;4.416;2023-04-24T13:44:05;26.40;85.80
19880;DHT22;10102;50.828;4.416;2023-04-24T13:46:31;23.70;98.90
19880;DHT22;10102;50.828;4.416;2023-04-24T13:48:58;21.30;94.40
19880;DHT22;10102;50.828;4.416;2023-04-24T13:51:27;21.10;99.90
19880;DHT22;10102;50.828;4.416;2023-04-24T13:53:53;21.00;95.60
19880;DHT22;10102;50.828;4.416;2023-04-24T13:56:19;20.40;99.90
19880;DHT22;10102;50.828;4.416;2023-04-24T13:58:45;19.50;99.90
19880;DHT22;10102;50.828;4.416;2023-04-24T14:01:12;18.70;99.30
19880;DHT22;10102;50.828;4.416;2023-04-24T14:08:32;18.50;99.90
19880;DHT22;10102;50.828;4.416;2023-04-24T14:10:57;18.30;99.90
19880;DHT22;10102;50.828;4.416;2023-04-24T14:13:23;17.70;99.90
19880;DHT22;10102;50.828;4.416;2023-04-24T14:15:49;17.40;99.90
19880;DHT22;10102;50.828;4.416;2023-04-24T14:18:15;17.00;99.90
19880;DHT22;10102;50.828;4.416;2023-04-24T14:20:41;17.10;99.90
19880;DHT22;10102;50.828;4.416;2023-04-24T14:23:07;17.30;99.90
19880;DHT22;10102;50.828;4.416;2023-04-24T14:25:34;16.90;99.90
19880;DHT22;10102;50.828;4.416;2023-04-24T14:28:02;16.80;99.90
19880;DHT22;10102;50.828;4.416;2023-04-24T14:30:28;16.60;99.90
19880;DHT22;10102;50.828;4.416;2023-04-24T14:37:47;15.90;99.90
19880;DHT22;10102;50.828;4.416;2023-04-24T14:43:32;15.50;99.90
19880;DHT22;10102;50.828;4.416;2023-04-24T14:45:59;15.70;99.90
19880;DHT22;10102;50.828;4.416;2023-04-24T14:58:10;15.80;99.90
19880;DHT22;10102;50.828;4.416;2023-04-24T15:00:36;15.90;99.90
19880;DHT22;10102;50.828;4.416;2023-04-24T15:03:02;16.20;99.90
19880;DHT22;10102;50.828;4.416;2023-04-24T15:05:27;16.30;99.90
19880;DHT22;10102;50.828;4.416;2023-04-24T15:10:20;16.20;99.90
19880;DHT22;10102;50.828;4.416;2023-04-24T15:17:40;16.20;99.90
19880;DHT22;10102;50.828;4.416;2023-04-24T15:20:06;16.20;99.90
19880;DHT22;10102;50.828;4.416;2023-04-24T15:22:32;16.00;99.90
19880;DHT22;10102;50.828;4.416;2023-04-24T15:27:24;15.60;99.90
19880;DHT22;10102;50.828;4.416;2023-04-24T15:29:50;15.80;99.90
19880;DHT22;10102;50.828;4.416;2023-04-24T15:32:16;16.00;99.90
19880;DHT22;10102;50.828;4.416;2023-04-24T15:34:41;15.70;99.90
19880;DHT22;10102;50.828;4.416;2023-04-24T15:37:07;16.10;99.90
19880;DHT22;10102;50.828;4.416;2023-04-24T15:39:33;16.60;99.90
19880;DHT22;10102;50.828;4.416;2023-04-24T15:41:59;16.60;99.90
19880;DHT22;10102;50.828;4.416;2023-04-24T15:44:25;16.30;99.90
19880;DHT22;10102;50.828;4.416;2023-04-24T15:49:18;16.20;99.90
19880;DHT22;10102;50.828;4.416;2023-04-24T15:51:43;15.90;99.90
19880;DHT22;10102;50.828;4.416;2023-04-24T15:54:09;15.60;99.90
19880;DHT22;10102;50.828;4.416;2023-04-24T15:56:35;15.70;99.90
19880;DHT22;10102;50.828;4.416;2023-04-24T16:01:29;15.20;99.90
19880;DHT22;10102;50.828;4.416;2023-04-24T16:03:55;15.50;99.90
19880;DHT22;10102;50.828;4.416;2023-04-24T16:06:21;15.30;99.90
19880;DHT22;10102;50.828;4.416;2023-04-24T16:08:47;15.20;99.90
19880;DHT22;10102;50.828;4.416;2023-04-24T16:11:12;15.70;99.90
19880;DHT22;10102;50.828;4.416;2023-04-24T16:13:38;15.40;99.90
19880;DHT22;10102;50.828;4.416;2023-04-24T16:16:04;15.20;99.90
19880;DHT22;10102;50.828;4.416;2023-04-24T16:18:30;15.20;99.90
19880;DHT22;10102;50.828;4.416;2023-04-24T16:25:48;15.40;99.90
19880;DHT22;10102;50.828;4.416;2023-04-24T16:28:14;15.40;99.90
19880;DHT22;10102;50.828;4.416;2023-04-24T16:30:40;15.40;99.90
19880;DHT22;10102;50.828;4.416;2023-04-24T16:33:05;15.50;99.90
19880;DHT22;10102;50.828;4.416;2023-04-24T16:35:34;15.40;99.90
19880;DHT22;10102;50.828;4.416;2023-04-24T16:38:00;15.40;99.90
19880;DHT22;10102;50.828;4.416;2023-04-24T16:40:27;15.20;99.90
19880;DHT22;10102;50.828;4.416;2023-04-24T16:45:19;17.00;99.90
19880;DHT22;10102;50.828;4.416;2023-04-24T16:47:45;18.10;99.90
19880;DHT22;10102;50.828;4.416;2023-04-24T16:50:11;18.70;99.90
19880;DHT22;10102;50.828;4.416;2023-04-24T16:52:37;19.50;99.90
19880;DHT22;10102;50.828;4.416;2023-04-24T16:55:04;19.60;99.90
19880;DHT22;10102;50.828;4.416;2023-04-24T16:57:30;19.00;99.90
19880;DHT22;10102;50.828;4.416;2023-04-24T16:59:55;19.30;99.90
19880;DHT22;10102;50.828;4.416;2023-04-24T17:02:21;18.20;99.90
19880;DHT22;10102;50.828;4.416;2023-04-24T17:04:47;18.10;99.90
19880;DHT22;10102;50.828;4.416;2023-04-24T17:07:13;17.90;99.90
19880;DHT22;10102;50.828;4.416;2023-04-24T17:09:39;17.70;99.90
19880;DHT22;10102;50.828;4.416;2023-04-24T17:12:04;17.80;99.90
19880;DHT22;10102;50.828;4.416;2023-04-24T17:14:31;17.40;99.90
19880;DHT22;10102;50.828;4.416;2023-04-24T17:16:56;16.90;99.90
19880;DHT22;10102;50.828;4.416;2023-04-24T17:19:22;16.60;99.90
19880;DHT22;10102;50.828;4.416;2023-04-24T17:21:48;16.40;99.90
19880;DHT22;10102;50.828;4.416;2023-04-24T17:24:14;16.20;99.90
19880;DHT22;10102;50.828;4.416;2023-04-24T17:26:39;16.00;99.90
19880;DHT22;10102;50.828;4.416;2023-04-24T17:29:05;15.80;99.90
19880;DHT22;10102;50.828;4.416;2023-04-24T17:36:24;15.30;99.90
19880;DHT22;10102;50.828;4.416;2023-04-24T17:38:49;14.90;99.90
19880;DHT22;10102;50.828;4.416;2023-04-24T17:41:16;15.10;99.90
19880;DHT22;10102;50.828;4.416;2023-04-24T17:43:41;15.00;99.90
19880;DHT22;10102;50.828;4.416;2023-04-24T17:53:27;14.70;99.90
19880;DHT22;10102;50.828;4.416;2023-04-24T17:55:53;14.90;99.90
19880;DHT22;10102;50.828;4.416;2023-04-24T17:58:22;14.70;99.90
19880;DHT22;10102;50.828;4.416;2023-04-24T18:00:47;14.70;99.90
19880;DHT22;10102;50.828;4.416;2023-04-24T18:05:39;14.50;99.90
19880;DHT22;10102;50.828;4.416;2023-04-24T18:08:05;14.60;99.90
19880;DHT22;10102;50.828;4.416;2023-04-24T18:17:53;13.80;99.90
19880;DHT22;10102;50.828;4.416;2023-04-24T18:20:19;13.80;99.90
19880;DHT22;10102;50.828;4.416;2023-04-24T18:25:12;13.60;99.90
19880;DHT22;10102;50.828;4.416;2023-04-24T18:27:39;13.70;99.90
19880;DHT22;10102;50.828;4.416;2023-04-24T18:30:06;13.70;99.90
19880;DHT22;10102;50.828;4.416;2023-04-24T18:32:33;13.80;99.90
19880;DHT22;10102;50.828;4.416;2023-04-24T18:34:59;13.60;99.90
19880;DHT22;10102;50.828;4.416;2023-04-24T18:39:51;13.70;99.90
19880;DHT22;10102;50.828;4.416;2023-04-24T18:42:17;13.90;99.90
19880;DHT22;10102;50.828;4.416;2023-04-24T18:47:09;13.60;99.90
19880;DHT22;10102;50.828;4.416;2023-04-24T18:49:35;13.60;99.90
19880;DHT22;10102;50.828;4.416;2023-04-24T18:52:01;13.40;99.90
19880;DHT22;10102;50.828;4.416;2023-04-24T18:54:27;13.40;99.90
19880;DHT22;10102;50.828;4.416;2023-04-24T18:59:19;13.30;99.90
19880;DHT22;10102;50.828;4.416;2023-04-24T19:06:38;13.10;99.90
19880;DHT22;10102;50.828;4.416;2023-04-24T19:09:04;12.80;99.90
19880;DHT22;10102;50.828;4.416;2023-04-24T19:13:56;13.10;99.90
19880;DHT22;10102;50.828;4.416;2023-04-24T19:16:24;12.90;99.90
19880;DHT22;10102;50.828;4.416;2023-04-24T19:18:50;12.90;99.90
19880;DHT22;10102;50.828;4.416;2023-04-24T19:21:16;12.90;99.90
19880;DHT22;10102;50.828;4.416;2023-04-24T19:23:41;12.80;99.90
19880;DHT22;10102;50.828;4.416;2023-04-24T19:26:09;12.70;99.90
19880;DHT22;10102;50.828;4.416;2023-04-24T19:28:35;12.80;99.90
19880;DHT22;10102;50.828;4.416;2023-04-24T19:31:01;12.70;99.90
19880;DHT22;10102;50.828;4.416;2023-04-24T19:33:27;12.80;99.90
19880;DHT22;10102;50.828;4.416;2023-04-24T19:38:19;13.00;99.90